createdAt,value
2018-01-03T00:00:41.264Z,87.20
2018-01-03T00:03:09.091Z,86.70
2018-01-03T00:05:36.904Z,86.10
2018-01-03T00:08:04.692Z,84.60
2018-01-03T00:10:32.471Z,84.70
2018-01-03T00:13:01.009Z,85.40
2018-01-03T00:15:28.804Z,85.40
2018-01-03T00:17:57.303Z,84.70
2018-01-03T00:20:25.084Z,84.60
2018-01-03T00:22:52.823Z,84.60
2018-01-03T00:25:20.608Z,84.80
2018-01-03T00:27:48.485Z,85.20
2018-01-03T00:30:16.264Z,85.40
2018-01-03T00:32:43.984Z,85.60
2018-01-03T00:35:11.744Z,85.90
2018-01-03T00:37:39.504Z,85.80
2018-01-03T00:40:07.264Z,86.20
2018-01-03T00:42:35.024Z,85.90
2018-01-03T00:45:03.564Z,84.70
2018-01-03T00:47:32.128Z,84.00
2018-01-03T00:49:59.884Z,83.90
2018-01-03T00:52:27.664Z,84.70
2018-01-03T00:54:55.484Z,85.40
2018-01-03T00:57:23.264Z,83.30
2018-01-03T00:59:51.091Z,81.40
2018-01-03T01:02:18.840Z,82.70
2018-01-03T01:04:46.604Z,84.20
2018-01-03T01:07:14.364Z,85.50
2018-01-03T01:09:42.104Z,85.80
2018-01-03T01:12:09.944Z,87.50
2018-01-03T01:14:37.743Z,86.80
2018-01-03T01:17:05.544Z,85.90
2018-01-03T01:19:34.124Z,87.50
2018-01-03T01:22:01.864Z,87.50
2018-01-03T01:24:29.664Z,88.00
2018-01-03T01:26:58.171Z,85.40
2018-01-03T01:29:25.943Z,85.40
2018-01-03T01:31:53.726Z,87.50
2018-01-03T01:34:21.444Z,88.20
2018-01-03T01:36:49.166Z,87.70
2018-01-03T01:39:16.923Z,86.30
2018-01-03T01:41:44.624Z,87.40
2018-01-03T01:44:12.349Z,88.10
2018-01-03T01:46:40.124Z,89.50
2018-01-03T01:49:08.004Z,89.80
2018-01-03T01:51:35.744Z,89.90
2018-01-03T01:54:03.488Z,89.80
2018-01-03T01:56:31.264Z,89.20
2018-01-03T01:58:58.985Z,89.40
2018-01-03T02:01:26.784Z,89.00
2018-01-03T02:03:54.611Z,87.70
2018-01-03T02:06:22.344Z,87.80
2018-01-03T02:08:50.054Z,88.40
2018-01-03T02:11:17.864Z,89.60
2018-01-03T02:13:45.584Z,90.00
2018-01-03T02:16:13.284Z,89.40
2018-01-03T02:18:41.104Z,90.20
2018-01-03T02:21:08.774Z,90.30
2018-01-03T02:23:36.483Z,90.00
2018-01-03T02:26:04.324Z,90.30
2018-01-03T02:28:32.078Z,90.50
2018-01-03T02:30:59.838Z,90.50
2018-01-03T02:33:27.605Z,90.30
2018-01-03T02:35:55.304Z,90.00
2018-01-03T02:38:32.764Z,90.00
2018-01-03T02:41:00.508Z,89.80
2018-01-03T02:43:28.224Z,90.20
2018-01-03T02:45:56.024Z,90.20
2018-01-03T02:48:24.505Z,89.80
2018-01-03T02:50:53.205Z,89.80
2018-01-03T02:53:21.044Z,89.60
2018-01-03T02:55:48.784Z,89.60
2018-01-03T02:58:16.524Z,89.80
2018-01-03T03:00:44.324Z,89.50
2018-01-03T03:03:11.932Z,89.00
2018-01-03T03:05:39.664Z,88.60
2018-01-03T03:08:08.184Z,87.20
2018-01-03T03:10:35.872Z,87.30
2018-01-03T03:13:03.584Z,88.10
2018-01-03T03:15:31.387Z,84.80
2018-01-03T03:17:59.142Z,84.10
2018-01-03T03:20:26.850Z,88.10
2018-01-03T03:22:54.564Z,88.80
2018-01-03T03:25:22.304Z,87.90
2018-01-03T03:27:50.784Z,89.70
2018-01-03T03:30:18.445Z,89.70
2018-01-03T03:32:46.210Z,88.20
2018-01-03T03:35:13.907Z,85.70
2018-01-03T03:37:41.598Z,85.70
2018-01-03T03:40:09.344Z,85.50
2018-01-03T03:42:37.108Z,86.40
2018-01-03T03:45:04.844Z,87.60
2018-01-03T03:47:32.644Z,88.60
2018-01-03T03:50:00.389Z,89.70
2018-01-03T03:52:28.104Z,88.40
2018-01-03T03:54:55.808Z,85.90
2018-01-03T03:57:24.224Z,85.90
2018-01-03T03:59:51.963Z,86.40
2018-01-03T04:02:19.664Z,87.40
2018-01-03T04:04:47.358Z,86.10
2018-01-03T04:07:15.124Z,85.30
2018-01-03T04:09:42.784Z,82.90
2018-01-03T04:12:10.503Z,86.20
2018-01-03T04:14:38.264Z,86.70
2018-01-03T04:17:05.964Z,87.10
2018-01-03T04:19:33.711Z,87.10
2018-01-03T04:22:01.445Z,87.10
2018-01-03T04:24:29.127Z,87.30
2018-01-03T04:26:56.904Z,87.30
2018-01-03T04:29:24.607Z,86.90
2018-01-03T04:31:52.294Z,86.60
2018-01-03T04:34:20.025Z,86.60
2018-01-03T04:36:47.764Z,86.10
2018-01-03T04:39:15.538Z,85.40
2018-01-03T04:41:43.265Z,84.50
2018-01-03T04:44:10.984Z,84.20
2018-01-03T04:46:38.769Z,84.60
2018-01-03T04:49:06.484Z,84.80
2018-01-03T04:51:34.203Z,85.00
2018-01-03T04:54:02.017Z,85.20
2018-01-03T04:56:29.724Z,85.40
2018-01-03T04:58:57.457Z,85.30
2018-01-03T05:01:25.224Z,85.10
2018-01-03T05:03:52.913Z,85.30
2018-01-03T05:06:20.617Z,85.30
2018-01-03T05:08:48.444Z,85.90
2018-01-03T05:11:16.177Z,86.30
2018-01-03T05:13:44.671Z,86.80
2018-01-03T05:16:12.485Z,86.80
2018-01-03T05:18:40.173Z,86.20
2018-01-03T05:21:07.846Z,85.70
2018-01-03T05:23:35.570Z,85.60
2018-01-03T05:26:03.345Z,86.40
2018-01-03T05:28:31.164Z,86.70
2018-01-03T05:30:58.904Z,86.90
2018-01-03T05:33:27.338Z,86.90
2018-01-03T05:35:55.044Z,86.80
2018-01-03T05:38:22.736Z,86.50
2018-01-03T05:40:50.524Z,86.10
2018-01-03T05:43:18.244Z,85.30
2018-01-03T05:45:45.970Z,84.90
2018-01-03T05:48:13.724Z,84.50
2018-01-03T05:50:41.448Z,84.50
2018-01-03T05:53:09.156Z,84.30
2018-01-03T05:55:36.944Z,84.70
2018-01-03T05:58:04.663Z,84.60
2018-01-03T06:00:32.344Z,84.50
2018-01-03T06:03:00.146Z,84.90
2018-01-03T06:05:27.847Z,85.60
2018-01-03T06:07:55.544Z,85.80
2018-01-03T06:10:23.344Z,85.80
2018-01-03T06:12:51.063Z,85.70
2018-01-03T06:15:18.848Z,85.60
2018-01-03T06:17:46.646Z,85.50
2018-01-03T06:20:14.324Z,85.20
2018-01-03T06:22:41.994Z,85.00
2018-01-03T06:25:09.752Z,84.00
2018-01-03T06:27:37.488Z,83.20
2018-01-03T06:30:05.204Z,82.90
2018-01-03T06:32:33.044Z,83.40
2018-01-03T06:35:00.804Z,83.90
2018-01-03T06:37:28.456Z,83.80
2018-01-03T06:39:56.941Z,83.40
2018-01-03T06:42:24.681Z,83.40
2018-01-03T06:44:52.404Z,83.10
2018-01-03T06:47:20.144Z,82.40
2018-01-03T06:49:47.902Z,81.90
2018-01-03T06:52:15.627Z,81.60
2018-01-03T06:54:43.391Z,81.80
2018-01-03T06:57:11.124Z,81.90
2018-01-03T06:59:38.850Z,82.10
2018-01-03T07:02:06.648Z,82.10
2018-01-03T07:04:34.368Z,82.10
2018-01-03T07:07:02.128Z,82.20
2018-01-03T07:09:29.871Z,82.10
2018-01-03T07:11:57.584Z,83.20
2018-01-03T07:14:25.304Z,84.20
2018-01-03T07:16:53.064Z,83.70
2018-01-03T07:19:20.764Z,83.30
2018-01-03T07:21:48.522Z,82.60
2018-01-03T07:24:16.350Z,81.10
2018-01-03T07:26:44.164Z,81.20
2018-01-03T07:29:11.840Z,81.90
2018-01-03T07:31:39.571Z,82.20
2018-01-03T07:34:08.004Z,83.80
2018-01-03T07:36:35.763Z,83.80
2018-01-03T07:39:03.544Z,83.90
2018-01-03T07:41:31.211Z,81.60
2018-01-03T07:43:58.972Z,79.80
2018-01-03T07:46:26.746Z,81.00
2018-01-03T07:48:54.544Z,80.70
2018-01-03T07:51:22.324Z,79.80
2018-01-03T07:53:50.106Z,78.60
2018-01-03T07:56:17.814Z,78.10
2018-01-03T07:58:45.623Z,78.50
2018-01-03T08:01:14.124Z,77.60
2018-01-03T08:03:41.843Z,77.60
2018-01-03T08:06:09.618Z,77.50
2018-01-03T08:08:37.371Z,77.80
2018-01-03T08:11:05.217Z,78.90
2018-01-03T08:13:33.145Z,79.70
2018-01-03T08:16:00.851Z,80.50
2018-01-03T08:18:28.626Z,81.00
2018-01-03T08:20:56.423Z,81.60
2018-01-03T08:23:24.152Z,81.60
2018-01-03T08:25:51.945Z,80.70
2018-01-03T08:28:19.845Z,78.90
2018-01-03T08:30:47.685Z,78.80
2018-01-03T08:33:17.125Z,78.60
2018-01-03T08:35:44.885Z,78.60
2018-01-03T08:38:12.745Z,78.40
2018-01-03T08:40:40.665Z,78.40
2018-01-03T08:43:08.524Z,77.20
2018-01-03T08:45:36.325Z,74.20
2018-01-03T08:48:04.043Z,72.40
2018-01-03T08:50:31.798Z,70.60
2018-01-03T08:52:59.567Z,68.40
2018-01-03T08:55:30.166Z,74.20
2018-01-03T08:57:57.882Z,77.60
2018-01-03T09:00:26.164Z,79.50
2018-01-03T09:02:54.816Z,78.30
2018-01-03T09:05:22.609Z,78.30
2018-01-03T09:07:50.356Z,77.70
2018-01-03T09:10:18.799Z,76.30
2018-01-03T09:12:46.520Z,76.60
2018-01-03T09:15:14.340Z,74.70
2018-01-03T09:17:44.582Z,74.90
2018-01-03T09:20:13.186Z,73.80
2018-01-03T09:22:41.051Z,65.90
2018-01-03T09:25:08.747Z,64.40
2018-01-03T09:27:40.422Z,62.80
2018-01-03T09:30:08.255Z,63.80
2018-01-03T09:32:36.246Z,65.40
2018-01-03T09:35:04.120Z,65.50
2018-01-03T09:37:31.759Z,64.60
2018-01-03T09:40:00.241Z,65.70
2018-01-03T09:42:27.985Z,65.70
2018-01-03T09:44:55.888Z,66.70
2018-01-03T09:47:23.858Z,66.10
2018-01-03T09:49:51.681Z,65.40
2018-01-03T09:52:19.505Z,66.00
2018-01-03T09:54:47.266Z,66.20
2018-01-03T09:57:15.874Z,63.30
2018-01-03T09:59:44.175Z,63.30
2018-01-03T10:02:12.160Z,62.70
2018-01-03T10:04:39.960Z,63.60
2018-01-03T10:07:07.741Z,66.20
2018-01-03T10:09:35.659Z,64.50
2018-01-03T10:12:03.562Z,65.30
2018-01-03T10:14:31.440Z,63.50
2018-01-03T10:16:59.180Z,61.60
2018-01-03T10:19:27.719Z,64.00
2018-01-03T10:21:55.459Z,64.00
2018-01-03T10:24:23.240Z,64.60
2018-01-03T10:26:50.986Z,61.50
2018-01-03T10:29:18.761Z,61.20
2018-01-03T10:31:46.521Z,64.50
2018-01-03T10:34:14.382Z,63.00
2018-01-03T10:36:42.179Z,60.40
2018-01-03T10:39:10.023Z,61.20
2018-01-03T10:41:37.841Z,60.10
2018-01-03T10:44:05.643Z,60.90
2018-01-03T10:46:33.461Z,59.70
2018-01-03T10:49:01.300Z,59.00
2018-01-03T10:51:29.098Z,59.90
2018-01-03T10:53:56.906Z,59.10
2018-01-03T10:56:24.719Z,58.10
2018-01-03T10:58:52.543Z,57.10
2018-01-03T11:01:20.304Z,58.10
2018-01-03T11:03:48.094Z,58.60
2018-01-03T11:06:15.939Z,56.70
2018-01-03T11:08:43.744Z,56.30
2018-01-03T11:11:11.520Z,56.40
2018-01-03T11:13:39.339Z,57.20
2018-01-03T11:16:07.085Z,57.50
2018-01-03T11:18:34.960Z,56.10
2018-01-03T11:21:02.740Z,57.70
2018-01-03T11:23:31.405Z,56.70
2018-01-03T11:25:59.140Z,56.70
2018-01-03T11:28:26.904Z,55.80
2018-01-03T11:30:54.717Z,55.90
2018-01-03T11:33:22.497Z,58.00
2018-01-03T11:35:50.303Z,58.30
2018-01-03T11:38:18.080Z,56.80
2018-01-03T11:40:45.881Z,57.60
2018-01-03T11:43:14.482Z,55.80
2018-01-03T11:45:42.220Z,55.80
2018-01-03T11:48:10.062Z,54.70
2018-01-03T11:50:37.820Z,55.00
2018-01-03T11:53:05.600Z,55.80
2018-01-03T11:55:33.420Z,56.20
2018-01-03T11:58:01.201Z,57.00
2018-01-03T12:00:28.981Z,56.60
2018-01-03T12:02:56.759Z,57.10
2018-01-03T12:05:24.540Z,56.30
2018-01-03T12:07:52.359Z,56.30
2018-01-03T12:10:20.220Z,56.80
2018-01-03T12:12:48.021Z,56.50
2018-01-03T12:15:15.901Z,56.20
2018-01-03T12:17:44.462Z,55.60
2018-01-03T12:20:12.240Z,55.60
2018-01-03T12:22:40.149Z,57.10
2018-01-03T12:25:08.028Z,57.10
2018-01-03T12:27:35.839Z,52.80
2018-01-03T12:30:03.604Z,54.00
2018-01-03T12:32:31.468Z,58.50
2018-01-03T12:35:00.443Z,63.40
2018-01-03T12:37:28.183Z,61.70
2018-01-03T12:39:56.045Z,62.10
2018-01-03T12:42:24.641Z,63.30
2018-01-03T12:44:52.420Z,63.20
2018-01-03T12:47:20.191Z,62.80
2018-01-03T12:49:48.001Z,65.20
2018-01-03T12:52:17.098Z,62.80
2018-01-03T12:54:45.640Z,63.30
2018-01-03T12:57:13.383Z,63.30
2018-01-03T12:59:41.183Z,63.30
2018-01-03T13:02:08.981Z,62.50
2018-01-03T13:04:36.784Z,62.00
2018-01-03T13:07:04.566Z,61.10
2018-01-03T13:09:32.978Z,59.30
2018-01-03T13:12:01.348Z,60.60
2018-01-03T13:14:29.361Z,59.90
2018-01-03T13:16:57.185Z,61.30
2018-01-03T13:19:24.927Z,57.60
2018-01-03T13:21:52.699Z,60.60
2018-01-03T13:24:20.458Z,65.60
2018-01-03T13:26:48.326Z,65.20
2018-01-03T13:29:16.141Z,64.70
2018-01-03T13:31:44.682Z,63.90
2018-01-03T13:34:12.346Z,64.00
2018-01-03T13:36:40.062Z,67.70
2018-01-03T13:39:07.884Z,68.00
2018-01-03T13:41:35.699Z,67.80
2018-01-03T13:44:03.407Z,67.10
2018-01-03T13:46:31.203Z,66.30
2018-01-03T13:48:58.959Z,66.10
2018-01-03T13:51:26.769Z,68.70
2018-01-03T13:53:55.307Z,70.50
2018-01-03T13:56:23.989Z,70.50
2018-01-03T13:58:51.942Z,71.30
2018-01-03T14:01:19.708Z,70.70
2018-01-03T14:03:56.301Z,73.70
2018-01-03T14:06:24.602Z,74.30
2018-01-03T14:08:52.307Z,71.60
2018-01-03T14:11:20.026Z,73.00
2018-01-03T14:13:47.839Z,76.00
2018-01-03T14:16:15.584Z,74.00
2018-01-03T14:18:44.122Z,73.80
2018-01-03T14:21:12.658Z,70.20
2018-01-03T14:23:40.388Z,70.20
2018-01-03T14:26:11.442Z,70.80
2018-01-03T14:28:39.269Z,75.50
2018-01-03T14:31:07.784Z,75.30
2018-01-03T14:33:35.531Z,75.30
2018-01-03T14:36:03.386Z,74.20
2018-01-03T14:38:31.191Z,72.50
2018-01-03T14:40:58.993Z,72.30
2018-01-03T14:43:28.041Z,70.80
2018-01-03T14:45:56.610Z,69.90
2018-01-03T14:48:24.359Z,69.90
2018-01-03T14:50:52.084Z,70.00
2018-01-03T14:53:19.822Z,67.80
2018-01-03T14:55:47.669Z,68.20
2018-01-03T14:58:15.500Z,69.10
2018-01-03T15:00:44.059Z,70.50
2018-01-03T15:03:11.780Z,70.50
2018-01-03T15:05:39.573Z,70.60
2018-01-03T15:08:07.401Z,70.90
2018-01-03T15:10:35.177Z,71.10
2018-01-03T15:13:02.937Z,71.00
2018-01-03T15:15:30.742Z,71.10
2018-01-03T15:17:58.530Z,71.50
2018-01-03T15:20:26.302Z,71.40
2018-01-03T15:22:53.967Z,71.30
2018-01-03T15:25:21.702Z,72.00
2018-01-03T15:27:49.466Z,71.70
2018-01-03T15:30:17.223Z,71.20
2018-01-03T15:32:44.925Z,72.20
2018-01-03T15:35:12.760Z,71.40
2018-01-03T15:37:41.245Z,72.10
2018-01-03T15:40:08.999Z,72.10
2018-01-03T15:42:36.688Z,71.30
2018-01-03T15:45:04.440Z,70.90
2018-01-03T15:47:32.170Z,70.80
2018-01-03T15:50:00.644Z,72.50
2018-01-03T15:52:28.383Z,72.60
2018-01-03T15:54:56.124Z,72.30
2018-01-03T15:57:23.883Z,72.70
2018-01-03T15:59:51.579Z,74.00
2018-01-03T16:02:20.079Z,71.90
2018-01-03T16:04:47.805Z,71.90
2018-01-03T16:07:15.560Z,71.70
2018-01-03T16:09:44.100Z,71.70
2018-01-03T16:12:12.778Z,72.30
2018-01-03T16:14:40.520Z,72.40
2018-01-03T16:17:09.046Z,73.30
2018-01-03T16:19:37.588Z,73.60
2018-01-03T16:22:05.392Z,73.60
2018-01-03T16:24:33.226Z,74.70
2018-01-03T16:27:01.021Z,75.60
2018-01-03T16:29:28.762Z,75.60
2018-01-03T16:31:56.522Z,75.40
2018-01-03T16:34:24.373Z,75.70
2018-01-03T16:36:52.140Z,75.10
2018-01-03T16:39:19.885Z,74.90
2018-01-03T16:41:47.682Z,74.90
2018-01-03T16:44:15.403Z,75.80
2018-01-03T16:46:45.540Z,75.90
2018-01-03T16:49:14.770Z,76.30
2018-01-03T16:51:48.045Z,76.00
2018-01-03T16:54:15.846Z,74.90
2018-01-03T16:56:43.528Z,75.80
2018-01-03T16:59:12.044Z,76.60
2018-01-03T17:01:39.824Z,76.60
2018-01-03T17:04:07.585Z,76.20
2018-01-03T17:06:35.325Z,75.30
2018-01-03T17:09:03.111Z,75.40
2018-01-03T17:11:31.620Z,75.50
2018-01-03T17:13:59.309Z,75.40
2018-01-03T17:16:27.110Z,75.80
2018-01-03T17:18:54.959Z,76.20
2018-01-03T17:21:23.768Z,77.10
2018-01-03T17:23:51.499Z,77.00
2018-01-03T17:26:19.351Z,76.60
2018-01-03T17:28:47.060Z,76.30
2018-01-03T17:31:14.941Z,76.10
2018-01-03T17:33:42.761Z,75.80
2018-01-03T17:36:10.601Z,75.40
2018-01-03T17:38:38.409Z,75.30
2018-01-03T17:41:06.161Z,75.30
2018-01-03T17:43:33.929Z,75.70
2018-01-03T17:46:01.722Z,76.10
2018-01-03T17:48:29.521Z,76.40
2018-01-03T17:50:57.300Z,75.40
2018-01-03T17:53:25.082Z,74.70
2018-01-03T17:55:52.892Z,73.50
2018-01-03T17:58:20.801Z,74.60
2018-01-03T18:00:48.624Z,73.60
2018-01-03T18:03:16.315Z,72.20
2018-01-03T18:05:44.024Z,72.50
2018-01-03T18:08:11.860Z,72.80
2018-01-03T18:10:39.620Z,73.00
2018-01-03T18:13:07.391Z,73.10
2018-01-03T18:15:35.968Z,73.30
2018-01-03T18:18:03.720Z,73.30
2018-01-03T18:20:31.443Z,72.20
2018-01-03T18:22:59.326Z,73.60
2018-01-03T18:25:29.917Z,72.70
2018-01-03T18:27:58.050Z,72.60
2018-01-03T18:30:27.340Z,77.00
2018-01-03T18:32:55.387Z,74.20
2018-01-03T18:35:23.131Z,73.80
2018-01-03T18:37:51.684Z,73.70
2018-01-03T18:40:22.046Z,76.00
2018-01-03T18:42:52.533Z,76.80
2018-01-03T18:45:24.732Z,75.70
2018-01-03T18:47:54.379Z,75.90
2018-01-03T18:50:23.305Z,76.30
2018-01-03T18:52:55.218Z,76.80
2018-01-03T18:55:23.373Z,76.80
2018-01-03T18:57:51.231Z,77.10
2018-01-03T19:00:22.927Z,77.70
2018-01-03T19:02:58.225Z,77.70
2018-01-03T19:05:27.400Z,77.90
2018-01-03T19:07:59.742Z,77.60
2018-01-03T19:10:28.241Z,77.50
2018-01-03T19:12:56.986Z,77.30
2018-01-03T19:15:25.530Z,77.40
2018-01-03T19:17:53.745Z,77.30
2018-01-03T19:20:22.370Z,77.20
2018-01-03T19:22:50.711Z,77.30
2018-01-03T19:25:20.204Z,77.10
2018-01-03T19:27:50.173Z,77.00
2018-01-03T19:30:19.690Z,78.00
2018-01-03T19:32:52.498Z,78.30
2018-01-03T19:35:22.818Z,78.00
2018-01-03T19:37:53.252Z,77.80
2018-01-03T19:40:21.353Z,77.80
2018-01-03T19:42:49.883Z,77.20
2018-01-03T19:45:18.526Z,77.30
2018-01-03T19:47:47.010Z,77.20
2018-01-03T19:50:15.200Z,77.20
2018-01-03T19:52:43.183Z,78.70
2018-01-03T19:55:24.579Z,78.00
2018-01-03T19:57:55.627Z,77.20
2018-01-03T20:00:25.610Z,77.20
2018-01-03T20:02:53.583Z,76.80
2018-01-03T20:05:22.721Z,77.50
2018-01-03T20:07:50.570Z,77.50
2018-01-03T20:10:22.332Z,77.50
2018-01-03T20:12:51.788Z,78.30
2018-01-03T20:15:22.337Z,78.30
2018-01-03T20:17:50.490Z,77.80
2018-01-03T20:20:18.257Z,78.50
2018-01-03T20:22:46.305Z,78.50
2018-01-03T20:25:18.393Z,78.80
2018-01-03T20:27:47.719Z,79.30
2018-01-03T20:30:28.541Z,78.50
2018-01-03T20:32:56.640Z,78.60
2018-01-03T20:35:28.114Z,78.10
2018-01-03T20:38:01.590Z,77.50
2018-01-03T20:40:35.203Z,75.40
2018-01-03T20:43:11.605Z,77.30
2018-01-03T20:45:41.845Z,72.10
2018-01-03T20:48:17.816Z,72.30
2018-01-03T20:50:48.371Z,73.90
2018-01-03T20:53:17.550Z,73.10
2018-01-03T20:55:50.789Z,73.00
2018-01-03T20:58:19.211Z,80.90
2018-01-03T21:00:47.234Z,77.80
2018-01-03T21:03:21.441Z,80.20
2018-01-03T21:05:57.591Z,80.20
2018-01-03T21:08:32.934Z,77.60
2018-01-03T21:11:07.553Z,80.90
2018-01-03T21:13:35.560Z,80.90
2018-01-03T21:16:03.850Z,84.50
2018-01-03T21:18:33.488Z,85.10
2018-01-03T21:21:02.181Z,80.40
2018-01-03T21:23:30.235Z,76.70
2018-01-03T21:25:58.901Z,81.80
2018-01-03T21:28:34.037Z,83.50
2018-01-03T21:31:11.217Z,77.10
2018-01-03T21:33:41.450Z,77.10
2018-01-03T21:36:15.333Z,77.00
2018-01-03T21:38:44.407Z,82.90
2018-01-03T21:41:16.111Z,83.90
2018-01-03T21:43:45.181Z,81.20
2018-01-03T21:46:13.767Z,76.40
2018-01-03T21:48:42.836Z,77.60
2018-01-03T21:51:16.923Z,81.20
2018-01-03T21:53:45.366Z,82.90
2018-01-03T21:56:19.917Z,83.20
2018-01-03T21:58:49.962Z,81.30
2018-01-03T22:01:18.225Z,81.30
2018-01-03T22:03:48.259Z,83.20
2018-01-03T22:06:17.242Z,83.70
2018-01-03T22:08:45.384Z,77.90
2018-01-03T22:11:13.820Z,76.10
2018-01-03T22:13:41.846Z,77.60
2018-01-03T22:16:11.750Z,83.00
2018-01-03T22:18:40.224Z,82.90
2018-01-03T22:21:09.117Z,83.50
2018-01-03T22:23:37.032Z,82.90
2018-01-03T22:26:04.744Z,81.10
2018-01-03T22:28:32.527Z,76.90
2018-01-03T22:31:00.281Z,76.10
2018-01-03T22:33:28.449Z,77.70
2018-01-03T22:35:56.240Z,79.80
2018-01-03T22:38:24.062Z,80.40
2018-01-03T22:40:53.639Z,80.10
2018-01-03T22:43:21.404Z,79.90
2018-01-03T22:45:49.411Z,81.10
2018-01-03T22:48:17.884Z,78.20
2018-01-03T22:50:45.687Z,76.70
2018-01-03T22:53:13.500Z,77.90
2018-01-03T22:55:41.545Z,79.30
2018-01-03T22:58:09.427Z,80.00
2018-01-03T23:00:37.349Z,83.40
2018-01-03T23:03:05.179Z,84.70
2018-01-03T23:05:33.021Z,80.50
2018-01-03T23:08:02.958Z,80.10
2018-01-03T23:10:32.900Z,80.80
2018-01-03T23:13:00.641Z,83.00
2018-01-03T23:15:28.382Z,84.00
2018-01-03T23:17:56.201Z,84.90
2018-01-03T23:20:23.944Z,85.40
2018-01-03T23:22:52.221Z,85.40
2018-01-03T23:25:22.256Z,85.00
2018-01-03T23:27:53.128Z,84.00
2018-01-03T23:30:21.223Z,83.60
2018-01-03T23:32:49.496Z,83.10
2018-01-03T23:35:18.015Z,81.60
2018-01-03T23:37:46.191Z,81.60
2018-01-03T23:40:14.020Z,81.30
2018-01-03T23:42:41.982Z,81.30
2018-01-03T23:45:10.281Z,80.70
2018-01-03T23:47:38.002Z,80.20
2018-01-03T23:50:06.691Z,80.10
2018-01-03T23:52:34.724Z,79.70
2018-01-03T23:55:03.085Z,79.30
2018-01-03T23:57:30.822Z,79.10
2018-01-03T23:59:58.804Z,78.80
